Time;durP1;ratioP1;P1;durP2;ratioP2;P2;SDS_P1;SDS_P2;PMS_P1;PMS_P2;Temp;Humidity;BMP_temperature;BMP_pressure;BME280_temperature;BME280_humidity;BME280_pressure;Samples;Min_cycle;Max_cycle;Signal;HPM_P1;HPM_P2
2022/12/10 00:01:20;;;;;;;;;;;18.20;45.30;;;;;;5012893;28;20381;-54
2022/12/10 00:03:46;;;;;;;;;;;18.20;45.40;;;;;;5001089;28;19952;-53
2022/12/10 00:06:12;;;;;;;;;;;18.20;46.20;;;;;;5001019;28;20312;-54
2022/12/10 00:08:38;;;;;;;;;;;18.10;45.50;;;;;;5007371;28;19957;-54
2022/12/10 00:11:03;;;;;;;;;;;18.10;45.50;;;;;;5001920;28;20355;-53
2022/12/10 00:13:29;;;;;;;;;;;18.00;45.60;;;;;;4989053;28;19917;-53
2022/12/10 00:15:54;;;;;;;;;;;18.00;45.80;;;;;;5005606;28;19925;-54
2022/12/10 00:18:20;;;;;;;;;;;18.00;45.60;;;;;;5004298;28;19913;-55
2022/12/10 00:20:45;;;;;;;;;;;18.00;45.70;;;;;;5018123;28;20052;-53
2022/12/10 00:23:11;;;;;;;;;;;18.00;45.50;;;;;;5003381;28;20015;-54
2022/12/10 00:25:36;;;;;;;;;;;17.90;45.70;;;;;;5004138;28;19925;-54
2022/12/10 00:28:01;;;;;;;;;;;17.90;45.70;;;;;;5004604;28;19918;-55
2022/12/10 00:30:27;;;;;;;;;;;17.90;45.70;;;;;;5005067;28;19963;-54
2022/12/10 00:32:52;;;;;;;;;;;17.80;45.90;;;;;;5006032;28;20274;-54
2022/12/10 00:35:18;;;;;;;;;;;17.80;45.90;;;;;;5004302;28;19922;-55
2022/12/10 00:37:43;;;;;;;;;;;17.80;46.00;;;;;;5002688;28;20329;-54
2022/12/10 00:40:10;;;;;;;;;;;17.80;46.00;;;;;;5011643;28;20333;-53
2022/12/10 00:42:36;;;;;;;;;;;17.70;45.90;;;;;;5002574;28;19949;-54
2022/12/10 00:45:01;;;;;;;;;;;17.70;46.20;;;;;;5018840;28;19958;-54
2022/12/10 00:47:27;;;;;;;;;;;17.60;46.10;;;;;;5003186;28;19914;-54
2022/12/10 00:49:52;;;;;;;;;;;17.70;46.10;;;;;;5001174;28;19921;-54
2022/12/10 00:52:17;;;;;;;;;;;17.60;46.10;;;;;;5004425;28;19926;-53
2022/12/10 00:54:43;;;;;;;;;;;17.50;46.10;;;;;;5006248;28;20011;-54
2022/12/10 00:57:08;;;;;;;;;;;17.50;46.10;;;;;;5003930;28;19917;-55
2022/12/10 00:59:34;;;;;;;;;;;17.50;46.10;;;;;;5003369;28;19917;-54
2022/12/10 01:01:59;;;;;;;;;;;17.50;46.30;;;;;;5005490;28;19914;-53
2022/12/10 01:04:25;;;;;;;;;;;17.50;46.40;;;;;;5006217;28;20438;-54
2022/12/10 01:06:51;;;;;;;;;;;17.50;46.20;;;;;;5003459;28;20488;-54
2022/12/10 01:09:21;;;;;;;;;;;17.40;46.20;;;;;;4999062;28;20362;-54
2022/12/10 01:11:47;;;;;;;;;;;17.40;46.30;;;;;;5004871;28;20292;-55
2022/12/10 01:14:14;;;;;;;;;;;17.30;46.20;;;;;;5008627;28;19914;-54
2022/12/10 01:16:39;;;;;;;;;;;17.30;46.30;;;;;;5011053;28;19952;-54
2022/12/10 01:19:05;;;;;;;;;;;17.30;46.20;;;;;;5012782;28;20385;-55
2022/12/10 01:21:30;;;;;;;;;;;17.20;46.30;;;;;;4943189;28;1737955;-54
2022/12/10 01:23:56;;;;;;;;;;;17.20;46.30;;;;;;5005251;28;19917;-53
2022/12/10 01:26:22;;;;;;;;;;;17.20;46.30;;;;;;5003563;28;20391;-53
2022/12/10 01:28:48;;;;;;;;;;;17.20;46.20;;;;;;5004021;28;20008;-54
2022/12/10 01:31:15;;;;;;;;;;;17.20;46.20;;;;;;4990747;28;20029;-53
2022/12/10 01:33:40;;;;;;;;;;;17.20;46.10;;;;;;5008233;28;19971;-54
2022/12/10 01:36:07;;;;;;;;;;;17.10;46.10;;;;;;5016585;28;19925;-54
2022/12/10 01:38:32;;;;;;;;;;;17.10;46.30;;;;;;5001286;28;19914;-54
2022/12/10 01:40:58;;;;;;;;;;;17.10;46.40;;;;;;5004050;28;19925;-53
2022/12/10 01:43:24;;;;;;;;;;;17.10;46.40;;;;;;5004884;28;19945;-54
2022/12/10 01:45:49;;;;;;;;;;;17.10;46.30;;;;;;5003703;28;20024;-53
2022/12/10 01:48:15;;;;;;;;;;;17.10;46.50;;;;;;5002541;28;19917;-54
2022/12/10 01:50:40;;;;;;;;;;;17.00;46.50;;;;;;5004041;28;19914;-53
2022/12/10 01:53:06;;;;;;;;;;;17.00;46.50;;;;;;5010256;28;20381;-54
2022/12/10 01:55:37;;;;;;;;;;;17.00;46.60;;;;;;4991797;28;19914;-53
2022/12/10 01:58:02;;;;;;;;;;;17.00;46.50;;;;;;5013300;28;20246;-53
2022/12/10 02:00:28;;;;;;;;;;;16.90;46.70;;;;;;5016495;28;19936;-54
2022/12/10 02:02:58;;;;;;;;;;;16.90;46.60;;;;;;4988196;28;19939;-53
2022/12/10 02:05:24;;;;;;;;;;;16.90;46.70;;;;;;4983631;28;20230;-53
2022/12/10 02:07:58;;;;;;;;;;;16.90;46.70;;;;;;5015216;28;19925;-55
2022/12/10 02:10:29;;;;;;;;;;;16.90;46.60;;;;;;5013634;28;19924;-52
2022/12/10 02:12:54;;;;;;;;;;;16.90;46.50;;;;;;4995289;28;19918;-53
2022/12/10 02:15:24;;;;;;;;;;;17.00;46.40;;;;;;5002428;28;19924;-54
2022/12/10 02:17:51;;;;;;;;;;;17.10;46.10;;;;;;5002359;28;19925;-53
2022/12/10 02:20:23;;;;;;;;;;;17.30;45.70;;;;;;5002367;28;19924;-54
2022/12/10 02:22:49;;;;;;;;;;;17.50;45.50;;;;;;5004020;28;20004;-54
2022/12/10 02:25:15;;;;;;;;;;;17.80;45.30;;;;;;5001950;28;20000;-54
2022/12/10 02:27:59;;;;;;;;;;;18.00;45.00;;;;;;4990602;28;19913;-53
2022/12/10 02:30:25;;;;;;;;;;;18.40;43.90;;;;;;5001850;28;20475;-52
2022/12/10 02:32:50;;;;;;;;;;;19.00;43.30;;;;;;5005927;28;19949;-54
2022/12/10 02:35:20;;;;;;;;;;;19.60;42.00;;;;;;5005617;28;19917;-54
2022/12/10 02:37:47;;;;;;;;;;;20.10;41.20;;;;;;4988910;28;19921;-54
2022/12/10 02:40:14;;;;;;;;;;;20.50;40.60;;;;;;4989329;28;20763;-53
2022/12/10 02:42:40;;;;;;;;;;;20.80;40.20;;;;;;4991989;28;20353;-53
2022/12/10 02:45:06;;;;;;;;;;;21.10;39.80;;;;;;4988770;28;19914;-53
2022/12/10 02:47:31;;;;;;;;;;;21.40;39.20;;;;;;5005086;28;20012;-53
2022/12/10 02:49:57;;;;;;;;;;;21.70;38.90;;;;;;4992132;28;19914;-53
2022/12/10 02:52:22;;;;;;;;;;;21.80;38.40;;;;;;4992618;28;19966;-53
2022/12/10 02:54:48;;;;;;;;;;;22.10;38.20;;;;;;5002181;28;19921;-53
2022/12/10 02:57:29;;;;;;;;;;;22.20;38.10;;;;;;4996451;28;19916;-52
2022/12/10 03:00:16;;;;;;;;;;;22.20;37.90;;;;;;5012218;28;19966;-53
2022/12/10 03:02:47;;;;;;;;;;;22.20;38.10;;;;;;4990067;28;19929;-54
2022/12/10 03:05:18;;;;;;;;;;;22.10;38.30;;;;;;4986504;28;19914;-53
2022/12/10 03:07:55;;;;;;;;;;;21.80;38.80;;;;;;4986782;28;19917;-53
2022/12/10 03:10:24;;;;;;;;;;;21.50;39.30;;;;;;4988627;28;19924;-53
2022/12/10 03:12:51;;;;;;;;;;;21.20;39.80;;;;;;4996013;28;20000;-53
2022/12/10 03:15:16;;;;;;;;;;;21.10;40.20;;;;;;5002562;28;19918;-53
2022/12/10 03:17:42;;;;;;;;;;;20.90;40.40;;;;;;5002424;28;20353;-54
2022/12/10 03:20:08;;;;;;;;;;;20.80;40.50;;;;;;5022887;28;20370;-53
2022/12/10 03:22:34;;;;;;;;;;;20.90;40.60;;;;;;5002598;28;19937;-54
2022/12/10 03:24:59;;;;;;;;;;;20.90;40.40;;;;;;5002424;28;19994;-54
2022/12/10 03:27:25;;;;;;;;;;;21.00;40.20;;;;;;4989198;28;19913;-54
2022/12/10 03:29:51;;;;;;;;;;;21.10;40.20;;;;;;4991817;28;20107;-53
2022/12/10 03:32:16;;;;;;;;;;;21.10;40.10;;;;;;5000695;28;19913;-53
2022/12/10 03:34:43;;;;;;;;;;;21.10;40.00;;;;;;5002094;28;19963;-53
2022/12/10 03:37:08;;;;;;;;;;;21.20;39.80;;;;;;4993008;28;19918;-53
2022/12/10 03:39:33;;;;;;;;;;;21.20;39.80;;;;;;5008729;28;19919;-54
2022/12/10 03:41:59;;;;;;;;;;;21.30;39.60;;;;;;5002862;28;19929;-53
2022/12/10 03:44:28;;;;;;;;;;;21.20;39.90;;;;;;4997526;28;19921;-53
2022/12/10 03:46:54;;;;;;;;;;;21.20;39.70;;;;;;5010034;28;19917;-53
2022/12/10 03:49:19;;;;;;;;;;;21.20;40.00;;;;;;5003429;28;19924;-52
2022/12/10 03:51:45;;;;;;;;;;;21.20;39.80;;;;;;5001182;28;19914;-54
2022/12/10 03:54:10;;;;;;;;;;;21.20;40.00;;;;;;5002751;28;19913;-54
2022/12/10 03:56:35;;;;;;;;;;;21.10;40.70;;;;;;5001274;28;19921;-54
2022/12/10 03:59:01;;;;;;;;;;;21.00;40.10;;;;;;5001539;28;19939;-53
2022/12/10 04:01:26;;;;;;;;;;;21.10;39.90;;;;;;5002188;28;19982;-53
2022/12/10 04:03:52;;;;;;;;;;;21.20;39.80;;;;;;5003083;28;19941;-54
2022/12/10 04:06:17;;;;;;;;;;;21.10;39.90;;;;;;5002717;28;19914;-54
2022/12/10 04:08:43;;;;;;;;;;;21.10;39.90;;;;;;5004892;28;19952;-53
2022/12/10 04:11:09;;;;;;;;;;;21.10;39.90;;;;;;4990898;28;19918;-54
2022/12/10 04:16:28;;;;;;;;;;;21.20;39.90;;;;;;4998354;28;19990;-54
2022/12/10 04:19:19;;;;;;;;;;;21.20;39.80;;;;;;5002907;28;19950;-54
2022/12/10 04:27:21;;;;;;;;;;;21.00;40.20;;;;;;4998568;28;19921;-54
2022/12/10 04:29:46;;;;;;;;;;;20.90;40.10;;;;;;4988407;28;19913;-53
2022/12/10 04:32:11;;;;;;;;;;;20.90;40.20;;;;;;5000900;28;19920;-53
2022/12/10 04:34:37;;;;;;;;;;;20.90;40.20;;;;;;5000949;28;19924;-53
2022/12/10 04:37:02;;;;;;;;;;;20.90;40.30;;;;;;5000526;28;19918;-53
2022/12/10 04:39:28;;;;;;;;;;;20.80;40.30;;;;;;5009056;28;19960;-52
2022/12/10 04:41:53;;;;;;;;;;;20.80;40.40;;;;;;5006909;28;20414;-55
2022/12/10 04:44:19;;;;;;;;;;;20.70;40.40;;;;;;4999149;28;19918;-53
2022/12/10 04:46:45;;;;;;;;;;;20.80;40.50;;;;;;5015167;28;19913;-54
2022/12/10 04:49:10;;;;;;;;;;;20.70;40.60;;;;;;4999775;28;19965;-54
2022/12/10 04:51:35;;;;;;;;;;;20.70;40.50;;;;;;5000442;28;19967;-54
2022/12/10 04:54:01;;;;;;;;;;;20.70;40.40;;;;;;5001221;28;20013;-54
2022/12/10 04:56:26;;;;;;;;;;;20.80;40.60;;;;;;5001879;28;19957;-53
2022/12/10 04:58:52;;;;;;;;;;;20.90;40.30;;;;;;5002073;28;19914;-54
2022/12/10 05:01:20;;;;;;;;;;;20.80;40.40;;;;;;5001307;28;19914;-53
2022/12/10 05:03:46;;;;;;;;;;;20.60;40.50;;;;;;5006200;28;19960;-53
2022/12/10 05:06:12;;;;;;;;;;;20.60;40.60;;;;;;5003627;28;19957;-54
2022/12/10 05:08:38;;;;;;;;;;;20.60;40.80;;;;;;5010113;28;20308;-53
2022/12/10 05:11:08;;;;;;;;;;;20.60;40.60;;;;;;5015375;28;19926;-53
2022/12/10 05:13:33;;;;;;;;;;;20.60;40.40;;;;;;4986986;28;19945;-53
2022/12/10 05:16:00;;;;;;;;;;;20.80;40.50;;;;;;5015013;28;19949;-54
2022/12/10 05:18:26;;;;;;;;;;;21.00;40.10;;;;;;5002802;28;20051;-54
2022/12/10 05:20:51;;;;;;;;;;;21.10;39.70;;;;;;5010894;28;19921;-55
2022/12/10 05:23:29;;;;;;;;;;;21.10;39.80;;;;;;5005871;28;19949;-54
2022/12/10 05:26:00;;;;;;;;;;;21.10;39.80;;;;;;5005042;28;19968;-55
2022/12/10 05:28:26;;;;;;;;;;;21.20;39.60;;;;;;5001998;28;19948;-54
2022/12/10 05:30:51;;;;;;;;;;;21.10;39.70;;;;;;5003803;28;19963;-54
2022/12/10 05:33:17;;;;;;;;;;;21.10;39.70;;;;;;5009155;28;19936;-53
2022/12/10 05:35:42;;;;;;;;;;;21.10;39.60;;;;;;5003235;28;19965;-54
2022/12/10 05:38:09;;;;;;;;;;;21.10;39.90;;;;;;5013370;28;19929;-55
2022/12/10 05:40:35;;;;;;;;;;;21.10;40.50;;;;;;5006601;28;19922;-53
2022/12/10 05:43:00;;;;;;;;;;;21.00;40.40;;;;;;5004661;28;19913;-53
2022/12/10 05:45:25;;;;;;;;;;;20.90;39.90;;;;;;5005490;28;19944;-54
2022/12/10 05:47:51;;;;;;;;;;;21.00;39.90;;;;;;5003919;28;20002;-53
2022/12/10 05:50:16;;;;;;;;;;;20.90;39.80;;;;;;4991328;28;19937;-53
2022/12/10 05:52:42;;;;;;;;;;;21.00;39.90;;;;;;5003983;28;19923;-54
2022/12/10 05:55:07;;;;;;;;;;;21.00;39.70;;;;;;5005488;28;19913;-53
2022/12/10 05:57:33;;;;;;;;;;;21.00;39.90;;;;;;5003178;28;19917;-53
2022/12/10 05:59:58;;;;;;;;;;;21.00;39.90;;;;;;5003012;28;19932;-53
2022/12/10 06:02:24;;;;;;;;;;;21.00;39.90;;;;;;5005775;28;19924;-54
2022/12/10 06:04:49;;;;;;;;;;;21.00;39.70;;;;;;5008561;28;19923;-53
2022/12/10 06:07:15;;;;;;;;;;;20.90;39.90;;;;;;5012165;28;19941;-53
2022/12/10 06:09:40;;;;;;;;;;;21.00;39.80;;;;;;4999417;28;19921;-53
2022/12/10 06:12:06;;;;;;;;;;;21.00;40.40;;;;;;5005767;28;19917;-54
2022/12/10 06:14:31;;;;;;;;;;;21.00;39.80;;;;;;5007162;28;20004;-53
2022/12/10 06:16:57;;;;;;;;;;;20.90;39.80;;;;;;5004488;28;19966;-54
2022/12/10 06:19:22;;;;;;;;;;;20.90;39.70;;;;;;5003971;28;19917;-53
2022/12/10 06:21:48;;;;;;;;;;;21.00;39.80;;;;;;5002656;28;19964;-54
2022/12/10 06:24:13;;;;;;;;;;;21.00;39.80;;;;;;5009940;28;20372;-54
2022/12/10 06:26:38;;;;;;;;;;;21.00;39.60;;;;;;5010561;28;19928;-54
2022/12/10 06:29:04;;;;;;;;;;;21.10;39.60;;;;;;5006113;28;19917;-54
2022/12/10 06:31:29;;;;;;;;;;;21.10;39.60;;;;;;5003963;28;19918;-54
2022/12/10 06:33:55;;;;;;;;;;;21.10;39.60;;;;;;5010871;28;19936;-54
2022/12/10 06:36:21;;;;;;;;;;;21.10;39.50;;;;;;5012099;28;19918;-54
2022/12/10 06:38:46;;;;;;;;;;;21.00;39.60;;;;;;5016764;28;19924;-54
2022/12/10 06:41:13;;;;;;;;;;;21.00;39.60;;;;;;5003646;28;19918;-53
2022/12/10 06:43:38;;;;;;;;;;;21.00;39.60;;;;;;5013781;28;19918;-53
2022/12/10 06:46:10;;;;;;;;;;;21.00;39.60;;;;;;5003341;28;19946;-54
2022/12/10 06:48:36;;;;;;;;;;;21.00;39.70;;;;;;5003285;28;19921;-54
2022/12/10 06:51:02;;;;;;;;;;;21.00;39.60;;;;;;5002200;28;19921;-54
2022/12/10 06:53:27;;;;;;;;;;;21.00;39.70;;;;;;5006290;28;19917;-54
2022/12/10 06:55:52;;;;;;;;;;;21.00;39.60;;;;;;4999276;28;20362;-54
2022/12/10 06:58:18;;;;;;;;;;;21.10;39.50;;;;;;5009576;28;20343;-54
2022/12/10 07:00:43;;;;;;;;;;;21.00;39.50;;;;;;5002530;28;20369;-54
2022/12/10 07:03:09;;;;;;;;;;;21.00;39.50;;;;;;5010822;28;19922;-54
2022/12/10 07:05:34;;;;;;;;;;;21.00;40.30;;;;;;5002998;28;20369;-54
2022/12/10 07:08:00;;;;;;;;;;;20.90;39.60;;;;;;5002886;28;20380;-54
2022/12/10 07:10:25;;;;;;;;;;;20.90;39.60;;;;;;5003162;28;20281;-54
2022/12/10 07:12:50;;;;;;;;;;;20.90;39.80;;;;;;5001493;28;20440;-54
2022/12/10 07:15:16;;;;;;;;;;;20.90;39.80;;;;;;4999671;28;20438;-53
2022/12/10 07:17:41;;;;;;;;;;;20.90;39.70;;;;;;5005436;28;19928;-54
2022/12/10 07:20:07;;;;;;;;;;;20.90;39.80;;;;;;4998874;28;19932;-54
2022/12/10 07:22:32;;;;;;;;;;;20.90;39.80;;;;;;5001632;28;19917;-53
2022/12/10 07:24:58;;;;;;;;;;;20.90;39.50;;;;;;5002848;28;19921;-54
2022/12/10 07:27:23;;;;;;;;;;;20.90;39.70;;;;;;5000308;28;19918;-54
2022/12/10 07:29:49;;;;;;;;;;;20.90;39.60;;;;;;5012369;28;20392;-54
2022/12/10 07:32:14;;;;;;;;;;;20.90;39.70;;;;;;5003738;28;20434;-55
2022/12/10 07:34:40;;;;;;;;;;;20.90;39.60;;;;;;5002341;28;19913;-54
2022/12/10 07:37:05;;;;;;;;;;;20.90;39.50;;;;;;5012770;28;19910;-54
2022/12/10 07:39:30;;;;;;;;;;;20.90;39.50;;;;;;5003284;28;19918;-55
2022/12/10 07:41:56;;;;;;;;;;;21.00;39.40;;;;;;5001698;28;19914;-55
2022/12/10 07:44:22;;;;;;;;;;;20.90;39.40;;;;;;5001491;28;19913;-54
2022/12/10 07:46:48;;;;;;;;;;;20.90;39.40;;;;;;5011495;28;19913;-54
2022/12/10 07:49:14;;;;;;;;;;;21.00;39.30;;;;;;5006023;28;19916;-54
2022/12/10 07:51:39;;;;;;;;;;;21.10;39.30;;;;;;5000475;28;19918;-53
2022/12/10 07:54:04;;;;;;;;;;;21.00;39.20;;;;;;5001753;28;19925;-54
2022/12/10 07:56:30;;;;;;;;;;;21.10;39.30;;;;;;5000975;28;20300;-53
2022/12/10 07:58:55;;;;;;;;;;;21.00;39.40;;;;;;5011886;28;19912;-52
2022/12/10 08:01:22;;;;;;;;;;;20.90;39.50;;;;;;5011555;28;19913;-55
2022/12/10 08:03:47;;;;;;;;;;;20.80;39.70;;;;;;5003058;28;19949;-53
2022/12/10 08:06:14;;;;;;;;;;;20.70;39.70;;;;;;5005888;28;20024;-53
2022/12/10 08:08:40;;;;;;;;;;;20.70;39.70;;;;;;4999710;28;20277;-54
2022/12/10 08:11:05;;;;;;;;;;;20.70;39.60;;;;;;5008059;28;19922;-54
2022/12/10 08:13:30;;;;;;;;;;;20.60;39.70;;;;;;5001510;28;19918;-54
2022/12/10 08:16:03;;;;;;;;;;;20.70;39.60;;;;;;4999706;28;19917;-54
2022/12/10 08:18:29;;;;;;;;;;;20.80;39.70;;;;;;5002039;28;19953;-54
2022/12/10 08:20:55;;;;;;;;;;;20.70;39.70;;;;;;5005538;28;19930;-53
2022/12/10 08:23:20;;;;;;;;;;;20.70;39.60;;;;;;5000985;28;20282;-53
2022/12/10 08:25:45;;;;;;;;;;;20.90;39.60;;;;;;5001626;28;20004;-54
2022/12/10 08:28:11;;;;;;;;;;;20.90;39.40;;;;;;5002767;28;19960;-54
2022/12/10 08:30:36;;;;;;;;;;;21.00;39.30;;;;;;5000127;28;19913;-53
2022/12/10 08:33:02;;;;;;;;;;;20.90;39.50;;;;;;5001912;28;19924;-53
2022/12/10 08:35:28;;;;;;;;;;;20.70;39.80;;;;;;4999515;28;19921;-55
2022/12/10 08:37:53;;;;;;;;;;;20.60;39.70;;;;;;5001539;28;19914;-54
2022/12/10 08:40:18;;;;;;;;;;;20.50;40.20;;;;;;5004064;28;19978;-54
2022/12/10 08:42:44;;;;;;;;;;;20.40;40.20;;;;;;5007402;28;19958;-54
2022/12/10 08:45:09;;;;;;;;;;;20.40;40.60;;;;;;5004226;28;19918;-54
2022/12/10 08:47:35;;;;;;;;;;;20.30;40.80;;;;;;5006952;28;19935;-54
2022/12/10 08:50:00;;;;;;;;;;;20.20;40.90;;;;;;5001131;28;19999;-52
2022/12/10 08:52:28;;;;;;;;;;;20.10;40.90;;;;;;5008850;28;19913;-54
2022/12/10 08:54:54;;;;;;;;;;;20.10;41.10;;;;;;5010281;28;19914;-54
2022/12/10 08:57:19;;;;;;;;;;;20.10;41.10;;;;;;5015796;28;19921;-53
2022/12/10 08:59:45;;;;;;;;;;;20.10;41.20;;;;;;5003089;28;19962;-54
2022/12/10 09:02:10;;;;;;;;;;;20.10;41.20;;;;;;5009272;28;19979;-54
2022/12/10 09:04:36;;;;;;;;;;;20.10;41.20;;;;;;4996473;28;19918;-54
2022/12/10 09:07:01;;;;;;;;;;;20.10;41.20;;;;;;5003169;28;19914;-54
2022/12/10 09:09:27;;;;;;;;;;;20.10;41.20;;;;;;5019257;28;19918;-54
2022/12/10 09:11:52;;;;;;;;;;;20.10;41.20;;;;;;5003558;28;20385;-53
2022/12/10 09:14:17;;;;;;;;;;;20.10;41.20;;;;;;5003275;28;19913;-54
2022/12/10 09:16:43;;;;;;;;;;;20.10;41.10;;;;;;5004949;28;19924;-54
2022/12/10 09:19:08;;;;;;;;;;;20.20;41.10;;;;;;5007975;28;20385;-54
2022/12/10 09:21:34;;;;;;;;;;;20.20;41.00;;;;;;4990432;28;19926;-53
2022/12/10 09:24:00;;;;;;;;;;;20.20;41.10;;;;;;5015533;28;19917;-54
2022/12/10 09:26:25;;;;;;;;;;;20.20;41.10;;;;;;5005179;28;19914;-53
2022/12/10 09:28:51;;;;;;;;;;;20.20;41.30;;;;;;5007170;28;19912;-53
2022/12/10 09:31:16;;;;;;;;;;;20.30;41.30;;;;;;4997219;28;19914;-54
2022/12/10 09:33:42;;;;;;;;;;;20.30;41.20;;;;;;5004857;28;20009;-54
2022/12/10 09:36:08;;;;;;;;;;;20.30;41.50;;;;;;5006628;28;19932;-53
2022/12/10 09:38:34;;;;;;;;;;;20.20;41.50;;;;;;5003882;28;19920;-54
2022/12/10 09:41:00;;;;;;;;;;;20.20;41.50;;;;;;5003411;28;19925;-54
2022/12/10 09:43:39;;;;;;;;;;;20.20;41.60;;;;;;5004779;28;20392;-54
2022/12/10 09:46:23;;;;;;;;;;;20.20;41.70;;;;;;4993313;28;19918;-54
2022/12/10 09:48:55;;;;;;;;;;;20.20;41.70;;;;;;5000444;28;20000;-53
2022/12/10 09:51:24;;;;;;;;;;;20.20;42.00;;;;;;4991755;28;20357;-54
2022/12/10 09:53:57;;;;;;;;;;;20.20;42.00;;;;;;5006817;28;19921;-54
2022/12/10 09:56:25;;;;;;;;;;;20.20;41.90;;;;;;5005007;28;19921;-53
2022/12/10 09:58:50;;;;;;;;;;;20.20;42.00;;;;;;5029002;28;20417;-53
2022/12/10 10:01:16;;;;;;;;;;;20.20;42.20;;;;;;5029861;28;19917;-53
2022/12/10 10:03:42;;;;;;;;;;;20.20;42.50;;;;;;5001219;28;19913;-53
2022/12/10 10:06:11;;;;;;;;;;;20.20;42.50;;;;;;4998741;28;19935;-53
2022/12/10 10:08:41;;;;;;;;;;;20.10;42.50;;;;;;4994884;28;19913;-53
2022/12/10 10:11:09;;;;;;;;;;;20.20;42.60;;;;;;4995741;28;20351;-55
2022/12/10 10:13:35;;;;;;;;;;;20.20;42.50;;;;;;4993047;28;19914;-53
2022/12/10 10:16:15;;;;;;;;;;;20.20;42.30;;;;;;5009374;28;20036;-54
2022/12/10 10:18:41;;;;;;;;;;;20.20;42.40;;;;;;5010529;28;20016;-54
2022/12/10 10:21:09;;;;;;;;;;;20.30;42.50;;;;;;5009168;28;20363;-54
2022/12/10 10:23:34;;;;;;;;;;;20.30;42.20;;;;;;5039550;28;19933;-53
2022/12/10 10:26:00;;;;;;;;;;;20.30;42.30;;;;;;4993003;28;20337;-54
2022/12/10 10:28:25;;;;;;;;;;;20.30;42.30;;;;;;4992361;28;19910;-53
2022/12/10 10:30:51;;;;;;;;;;;20.40;42.40;;;;;;4995951;28;20354;-53
2022/12/10 10:33:17;;;;;;;;;;;20.30;42.30;;;;;;4999603;28;19921;-54
2022/12/10 10:35:46;;;;;;;;;;;20.40;42.30;;;;;;5005223;28;19966;-53
2022/12/10 10:38:17;;;;;;;;;;;20.40;42.30;;;;;;5005190;28;19914;-53
2022/12/10 10:40:43;;;;;;;;;;;20.40;42.60;;;;;;5023591;28;20439;-52
2022/12/10 10:43:16;;;;;;;;;;;20.40;42.80;;;;;;5017672;28;20016;-52
2022/12/10 10:45:42;;;;;;;;;;;20.40;42.80;;;;;;5018619;28;19928;-52
2022/12/10 10:48:14;;;;;;;;;;;20.30;42.80;;;;;;4998480;28;19914;-54
2022/12/10 10:50:40;;;;;;;;;;;20.30;43.00;;;;;;5028947;28;19996;-54
2022/12/10 10:53:24;;;;;;;;;;;20.30;43.00;;;;;;5008963;28;20028;-54
2022/12/10 10:55:50;;;;;;;;;;;20.30;43.00;;;;;;5014782;28;19936;-53
2022/12/10 10:58:19;;;;;;;;;;;20.30;43.20;;;;;;4993211;28;19914;-53
2022/12/10 11:00:54;;;;;;;;;;;20.20;43.10;;;;;;4990675;28;19922;-54
2022/12/10 11:03:20;;;;;;;;;;;20.20;43.10;;;;;;5010093;28;20396;-53
2022/12/10 11:05:47;;;;;;;;;;;20.10;43.30;;;;;;5009445;28;19960;-54
2022/12/10 11:08:17;;;;;;;;;;;20.30;43.10;;;;;;4992973;28;19959;-53
2022/12/10 11:10:46;;;;;;;;;;;20.80;42.00;;;;;;4997991;28;19917;-54
2022/12/10 11:13:19;;;;;;;;;;;21.30;41.10;;;;;;5005209;28;19913;-53
2022/12/10 11:15:45;;;;;;;;;;;21.60;40.40;;;;;;5001424;28;19918;-53
2022/12/10 11:18:22;;;;;;;;;;;21.90;39.90;;;;;;4990204;28;20281;-54
2022/12/10 11:20:55;;;;;;;;;;;21.90;39.70;;;;;;5007144;28;19922;-54
2022/12/10 11:23:21;;;;;;;;;;;22.10;39.70;;;;;;5022414;28;19967;-54
2022/12/10 11:25:52;;;;;;;;;;;22.10;39.80;;;;;;5003779;28;20285;-54
2022/12/10 11:28:29;;;;;;;;;;;22.20;39.40;;;;;;4988395;28;19940;-54
2022/12/10 11:31:03;;;;;;;;;;;22.20;38.70;;;;;;5003595;28;19925;-53
2022/12/10 11:33:34;;;;;;;;;;;22.20;38.80;;;;;;5077432;28;19917;-53
2022/12/10 11:36:11;;;;;;;;;;;22.20;38.70;;;;;;5008749;28;19974;-54
2022/12/10 11:38:41;;;;;;;;;;;22.20;38.70;;;;;;5003727;28;19926;-54
2022/12/10 11:41:28;;;;;;;;;;;22.20;38.80;;;;;;4984893;28;19924;-54
2022/12/10 11:43:56;;;;;;;;;;;22.30;38.70;;;;;;5002068;28;19958;-55
2022/12/10 11:46:22;;;;;;;;;;;22.30;38.70;;;;;;4999770;28;19948;-54
2022/12/10 11:48:50;;;;;;;;;;;22.40;38.70;;;;;;5002001;28;19945;-54
2022/12/10 11:51:30;;;;;;;;;;;22.40;38.70;;;;;;5001903;28;19917;-54
2022/12/10 11:54:14;;;;;;;;;;;22.30;38.70;;;;;;5001666;28;19998;-54
2022/12/10 11:56:43;;;;;;;;;;;22.40;38.90;;;;;;4997080;28;20369;-53
2022/12/10 11:59:27;;;;;;;;;;;22.40;38.80;;;;;;4998734;28;19918;-54
2022/12/10 12:01:58;;;;;;;;;;;22.40;38.90;;;;;;4997710;28;19921;-54
2022/12/10 12:04:40;;;;;;;;;;;22.40;38.80;;;;;;4999003;28;19913;-56
2022/12/10 12:07:25;;;;;;;;;;;22.40;38.80;;;;;;4998973;28;19969;-54
2022/12/10 12:09:57;;;;;;;;;;;22.40;38.80;;;;;;4999356;28;19914;-54
2022/12/10 12:12:25;;;;;;;;;;;22.40;38.90;;;;;;4993238;28;19913;-52
2022/12/10 12:14:53;;;;;;;;;;;22.50;38.80;;;;;;5003833;28;19996;-54
2022/12/10 12:17:30;;;;;;;;;;;22.50;39.00;;;;;;4988505;28;19914;-54
2022/12/10 12:19:57;;;;;;;;;;;22.60;38.90;;;;;;5004538;28;20005;-55
2022/12/10 12:22:23;;;;;;;;;;;22.50;38.90;;;;;;5005641;28;20357;-54
2022/12/10 12:24:49;;;;;;;;;;;22.60;38.80;;;;;;5015801;28;20535;-53
2022/12/10 12:27:44;;;;;;;;;;;22.60;39.00;;;;;;4994014;28;19987;-53
2022/12/10 12:30:15;;;;;;;;;;;22.50;39.10;;;;;;5019666;28;19927;-53
2022/12/10 12:32:40;;;;;;;;;;;22.60;39.00;;;;;;5010110;28;20004;-54
2022/12/10 12:35:10;;;;;;;;;;;22.60;39.00;;;;;;5005220;28;20004;-54
2022/12/10 12:37:37;;;;;;;;;;;22.60;38.90;;;;;;4992194;28;19924;-55
2022/12/10 12:40:04;;;;;;;;;;;22.70;38.80;;;;;;4992478;28;19920;-53
2022/12/10 12:42:30;;;;;;;;;;;22.60;38.80;;;;;;5016840;28;19921;-54
2022/12/10 12:45:02;;;;;;;;;;;22.60;38.70;;;;;;4992734;28;20362;-54
2022/12/10 12:47:34;;;;;;;;;;;22.70;38.90;;;;;;5012303;28;19914;-54
2022/12/10 12:50:00;;;;;;;;;;;22.70;38.70;;;;;;4993140;28;19922;-54
2022/12/10 12:52:34;;;;;;;;;;;22.60;38.70;;;;;;5009591;28;19924;-54
2022/12/10 12:55:00;;;;;;;;;;;22.60;38.80;;;;;;4990988;28;19992;-53
2022/12/10 12:57:44;;;;;;;;;;;22.70;38.70;;;;;;4992084;28;20005;-53
2022/12/10 13:00:10;;;;;;;;;;;22.70;38.60;;;;;;4991832;28;19932;-53
2022/12/10 13:02:42;;;;;;;;;;;22.70;38.70;;;;;;4988973;28;19939;-54
2022/12/10 13:05:24;;;;;;;;;;;22.70;38.70;;;;;;4990136;28;19921;-54
2022/12/10 13:08:09;;;;;;;;;;;22.70;38.70;;;;;;4991993;28;19928;-54
2022/12/10 13:10:43;;;;;;;;;;;22.70;38.70;;;;;;5004063;28;20079;-53
2022/12/10 13:13:24;;;;;;;;;;;22.70;38.70;;;;;;5005254;28;19917;-54
2022/12/10 13:15:50;;;;;;;;;;;22.70;38.60;;;;;;5006568;28;19921;-53
2022/12/10 13:18:18;;;;;;;;;;;22.70;38.60;;;;;;5004318;28;19924;-54
2022/12/10 13:20:46;;;;;;;;;;;22.70;38.60;;;;;;5002536;28;19951;-54
2022/12/10 13:23:23;;;;;;;;;;;22.70;38.60;;;;;;5002748;28;19964;-55
2022/12/10 13:25:49;;;;;;;;;;;22.70;38.60;;;;;;5003356;28;23816;-55
2022/12/10 13:28:28;;;;;;;;;;;22.70;38.60;;;;;;5005228;28;19914;-52
2022/12/10 13:31:12;;;;;;;;;;;22.70;38.60;;;;;;5001557;28;20004;-54
2022/12/10 13:33:53;;;;;;;;;;;22.70;38.60;;;;;;5004251;28;20385;-55
2022/12/10 13:36:23;;;;;;;;;;;22.70;38.60;;;;;;5002989;28;19925;-54
2022/12/10 13:38:56;;;;;;;;;;;22.70;38.70;;;;;;5004160;28;20401;-54
2022/12/10 13:44:23;;;;;;;;;;;22.80;38.50;;;;;;5004998;28;19919;-55
2022/12/10 13:47:08;;;;;;;;;;;22.80;38.40;;;;;;5002505;28;19928;-54
2022/12/10 13:49:35;;;;;;;;;;;22.70;38.40;;;;;;5001580;28;19971;-54
2022/12/10 13:52:01;;;;;;;;;;;22.80;38.40;;;;;;5005869;28;19956;-54
2022/12/10 13:54:36;;;;;;;;;;;22.80;38.40;;;;;;5003373;28;19953;-54
2022/12/10 13:57:11;;;;;;;;;;;22.80;38.50;;;;;;5003574;28;19921;-54
2022/12/10 13:59:36;;;;;;;;;;;22.90;38.40;;;;;;5003484;28;19918;-55
2022/12/10 14:02:02;;;;;;;;;;;22.90;38.40;;;;;;5003627;28;19920;-52
2022/12/10 14:04:46;;;;;;;;;;;22.90;38.30;;;;;;5004767;28;20004;-54
2022/12/10 14:07:12;;;;;;;;;;;22.80;38.40;;;;;;5014243;28;19948;-54
2022/12/10 14:09:54;;;;;;;;;;;22.80;38.50;;;;;;5002420;28;19920;-55
2022/12/10 14:12:26;;;;;;;;;;;22.90;38.50;;;;;;5004266;28;19986;-54
2022/12/10 14:14:56;;;;;;;;;;;22.90;38.40;;;;;;5006270;28;19952;-54
2022/12/10 14:17:23;;;;;;;;;;;22.90;38.40;;;;;;5005415;28;19917;-54
2022/12/10 14:19:49;;;;;;;;;;;22.90;38.50;;;;;;5008339;28;19917;-53
2022/12/10 14:22:15;;;;;;;;;;;22.90;38.40;;;;;;4988842;28;19929;-54
2022/12/10 14:24:43;;;;;;;;;;;22.90;38.30;;;;;;5002847;28;19958;-53
2022/12/10 14:27:11;;;;;;;;;;;22.90;38.40;;;;;;5015907;28;19914;-54
2022/12/10 14:29:37;;;;;;;;;;;23.00;38.30;;;;;;5012357;28;19920;-54
2022/12/10 14:32:02;;;;;;;;;;;23.00;38.20;;;;;;5002599;28;19921;-54